createdAt,value
2023-04-30T00:00:02.865Z,6.80
2023-04-30T00:02:29.797Z,5.13
2023-04-30T00:04:56.600Z,4.73
2023-04-30T00:07:23.340Z,4.77
2023-04-30T00:09:51.425Z,4.93
2023-04-30T00:12:18.323Z,5.03
2023-04-30T00:14:45.092Z,5.90
2023-04-30T00:17:11.831Z,7.27
2023-04-30T00:19:38.578Z,5.37
2023-04-30T00:22:06.336Z,4.60
2023-04-30T00:24:33.140Z,4.40
2023-04-30T00:26:59.927Z,5.03
2023-04-30T00:29:26.876Z,5.60
2023-04-30T00:31:53.609Z,5.10
2023-04-30T00:34:20.400Z,4.70
2023-04-30T00:36:47.166Z,5.47
2023-04-30T00:39:13.953Z,5.03
2023-04-30T00:41:41.733Z,6.00
2023-04-30T00:44:08.795Z,5.63
2023-04-30T00:46:35.722Z,6.23
2023-04-30T00:49:04.998Z,5.70
2023-04-30T00:51:32.780Z,4.87
2023-04-30T00:54:03.519Z,8.77
2023-04-30T00:56:31.391Z,5.10
2023-04-30T00:58:58.576Z,5.80
2023-04-30T01:01:32.011Z,6.33
2023-04-30T01:03:58.948Z,5.47
2023-04-30T01:06:27.144Z,7.00
2023-04-30T01:08:54.443Z,9.17
2023-04-30T01:11:42.782Z,6.03
2023-04-30T01:14:29.329Z,4.67
2023-04-30T01:17:17.193Z,5.40
2023-04-30T01:19:46.072Z,5.27
2023-04-30T01:22:27.855Z,5.97
2023-04-30T01:25:04.337Z,8.10
2023-04-30T01:28:01.132Z,6.00
2023-04-30T01:30:28.945Z,6.50
2023-04-30T01:32:55.747Z,6.33
2023-04-30T01:35:31.865Z,8.33
2023-04-30T01:38:17.961Z,6.57
2023-04-30T01:41:17.187Z,7.13
2023-04-30T01:44:01.189Z,8.53
2023-04-30T01:46:31.523Z,6.90
2023-04-30T01:49:28.314Z,7.07
2023-04-30T01:52:14.917Z,6.90
2023-04-30T01:55:05.308Z,7.67
2023-04-30T01:57:41.166Z,6.47
2023-04-30T02:00:12.841Z,7.10
2023-04-30T02:02:39.618Z,7.93
2023-04-30T02:05:07.373Z,8.30
2023-04-30T02:07:42.355Z,6.37
2023-04-30T02:10:09.999Z,7.20
2023-04-30T02:12:36.910Z,7.57
2023-04-30T02:15:05.076Z,6.70
2023-04-30T02:17:32.493Z,7.20
2023-04-30T02:20:00.343Z,8.07
2023-04-30T02:22:27.350Z,7.57
2023-04-30T02:24:55.732Z,8.00
2023-04-30T02:27:24.269Z,7.13
2023-04-30T02:29:51.234Z,6.77
2023-04-30T02:32:18.155Z,8.83
2023-04-30T02:34:45.239Z,9.13
2023-04-30T02:37:12.000Z,7.20
2023-04-30T02:39:38.827Z,7.77
2023-04-30T02:42:07.458Z,7.57
2023-04-30T02:44:34.840Z,9.37
2023-04-30T02:47:02.442Z,9.30
2023-04-30T02:49:29.907Z,8.60
2023-04-30T02:51:56.683Z,7.07
2023-04-30T02:54:23.455Z,6.83
2023-04-30T02:56:50.340Z,8.43
2023-04-30T02:59:17.095Z,9.70
2023-04-30T03:01:43.861Z,10.40
2023-04-30T03:04:10.738Z,8.60
2023-04-30T03:06:37.498Z,8.40
2023-04-30T03:09:04.405Z,7.80
2023-04-30T03:11:31.111Z,9.43
2023-04-30T03:13:57.897Z,10.97
2023-04-30T03:16:24.758Z,9.03
2023-04-30T03:18:51.629Z,8.53
2023-04-30T03:21:18.999Z,9.83
2023-04-30T03:23:46.289Z,7.90
2023-04-30T03:26:13.221Z,9.63
2023-04-30T03:28:40.038Z,9.60
2023-04-30T03:31:06.838Z,8.37
2023-04-30T03:33:33.723Z,8.67
2023-04-30T03:36:00.668Z,8.50
2023-04-30T03:38:27.421Z,9.57
2023-04-30T03:40:54.233Z,8.77
2023-04-30T03:43:22.184Z,8.30
2023-04-30T03:45:49.502Z,8.83
2023-04-30T03:48:16.490Z,8.37
2023-04-30T03:50:43.794Z,9.73
2023-04-30T03:53:10.554Z,7.97
2023-04-30T03:55:37.579Z,9.00
2023-04-30T03:58:04.599Z,11.87
2023-04-30T04:00:31.725Z,8.90
2023-04-30T04:02:59.619Z,8.80
2023-04-30T04:05:26.815Z,9.53
2023-04-30T04:07:53.556Z,9.27
2023-04-30T04:10:20.572Z,10.37
2023-04-30T04:12:47.359Z,9.93
2023-04-30T04:15:14.399Z,10.50
2023-04-30T04:17:41.329Z,10.53
2023-04-30T04:20:08.792Z,9.83
2023-04-30T04:22:35.588Z,9.83
2023-04-30T04:25:02.382Z,10.40
2023-04-30T04:27:29.137Z,13.40
2023-04-30T04:29:56.119Z,8.20
2023-04-30T04:32:23.527Z,10.23
2023-04-30T04:34:50.445Z,9.03
2023-04-30T04:37:17.724Z,10.90
2023-04-30T04:39:45.170Z,11.07
2023-04-30T04:42:12.424Z,10.60
2023-04-30T04:44:39.583Z,9.67
2023-04-30T04:47:06.362Z,10.60
2023-04-30T04:49:33.069Z,10.53
2023-04-30T04:51:59.816Z,10.00
2023-04-30T04:54:26.780Z,10.90
2023-04-30T04:56:53.578Z,9.90
2023-04-30T04:59:21.013Z,9.80
2023-04-30T05:01:48.065Z,9.37
2023-04-30T05:04:14.916Z,10.17
2023-04-30T05:06:43.007Z,9.03
2023-04-30T05:09:10.098Z,9.60
2023-04-30T05:11:36.933Z,9.97
2023-04-30T05:14:03.722Z,9.57
2023-04-30T05:16:30.464Z,9.27
2023-04-30T05:18:57.352Z,8.83
2023-04-30T05:21:26.088Z,9.70
2023-04-30T05:23:52.941Z,10.73
2023-04-30T05:26:19.907Z,11.00
2023-04-30T05:28:46.786Z,8.10
2023-04-30T05:31:13.937Z,8.20
2023-04-30T05:33:41.175Z,10.47
2023-04-30T05:36:08.238Z,12.03
2023-04-30T05:38:35.055Z,11.30
2023-04-30T05:41:01.863Z,9.33
2023-04-30T05:43:28.692Z,9.97
2023-04-30T05:45:55.645Z,9.73
2023-04-30T05:48:22.415Z,8.63
2023-04-30T05:50:49.133Z,11.40
2023-04-30T05:53:15.892Z,10.07
2023-04-30T05:55:42.770Z,11.20
2023-04-30T05:58:09.539Z,10.73
2023-04-30T06:00:36.249Z,9.93
2023-04-30T06:03:03.076Z,9.97
2023-04-30T06:05:29.872Z,10.57
2023-04-30T06:07:56.633Z,10.77
2023-04-30T06:10:24.578Z,9.87
2023-04-30T06:12:51.397Z,10.00
2023-04-30T06:15:18.212Z,10.30
2023-04-30T06:17:45.034Z,10.47
2023-04-30T06:20:12.184Z,11.20
2023-04-30T06:22:41.137Z,10.57
2023-04-30T06:25:08.421Z,10.30
2023-04-30T06:27:35.266Z,9.43
2023-04-30T06:30:02.004Z,9.13
2023-04-30T06:32:28.751Z,10.53
2023-04-30T06:34:55.885Z,8.97
2023-04-30T06:37:22.755Z,10.10
2023-04-30T06:39:50.168Z,9.63
2023-04-30T06:42:17.139Z,12.07
2023-04-30T06:44:43.921Z,11.27
2023-04-30T06:47:10.716Z,9.90
2023-04-30T06:49:37.445Z,10.13
2023-04-30T06:52:05.239Z,10.50
2023-04-30T06:54:31.938Z,10.80
2023-04-30T06:56:58.661Z,9.20
2023-04-30T06:59:25.400Z,9.57
2023-04-30T07:01:52.194Z,10.53
2023-04-30T07:04:20.080Z,9.53
2023-04-30T07:06:46.892Z,8.40
2023-04-30T07:09:15.673Z,8.80
2023-04-30T07:11:42.802Z,8.60
2023-04-30T07:14:09.630Z,9.00
2023-04-30T07:16:36.375Z,10.37
2023-04-30T07:19:03.271Z,8.57
2023-04-30T07:21:32.734Z,8.70
2023-04-30T07:23:59.543Z,9.00
2023-04-30T07:26:26.543Z,8.77
2023-04-30T07:28:53.440Z,8.60
2023-04-30T07:31:20.417Z,9.40
2023-04-30T07:33:47.363Z,8.80
2023-04-30T07:36:14.123Z,6.77
2023-04-30T07:38:40.843Z,7.60
2023-04-30T07:41:09.528Z,7.10
2023-04-30T07:43:36.237Z,6.80
2023-04-30T07:46:04.002Z,7.33
2023-04-30T07:48:31.270Z,8.20
2023-04-30T07:50:57.973Z,6.93
2023-04-30T07:53:24.729Z,7.07
2023-04-30T07:55:51.508Z,5.27
2023-04-30T07:58:18.253Z,5.70
2023-04-30T08:00:44.938Z,5.50
2023-04-30T08:03:12.301Z,6.60
2023-04-30T08:05:39.180Z,8.23
2023-04-30T08:08:06.124Z,6.13
2023-04-30T08:10:32.848Z,5.73
2023-04-30T08:12:59.693Z,4.83
2023-04-30T08:17:53.902Z,5.37
2023-04-30T08:20:23.296Z,5.33
2023-04-30T08:22:50.029Z,5.17
2023-04-30T08:25:16.881Z,5.83
2023-04-30T08:27:43.614Z,6.27
2023-04-30T08:30:11.352Z,5.93
2023-04-30T08:32:38.324Z,4.90
2023-04-30T08:35:06.163Z,6.00
2023-04-30T08:37:33.415Z,6.70
2023-04-30T08:40:00.601Z,9.03
2023-04-30T08:42:35.840Z,5.70
2023-04-30T08:45:04.340Z,5.27
2023-04-30T08:47:31.307Z,5.40
2023-04-30T08:49:58.079Z,5.50
2023-04-30T08:52:26.858Z,5.50
2023-04-30T08:54:57.362Z,4.60
2023-04-30T08:57:24.114Z,4.67
2023-04-30T08:59:50.850Z,6.33
2023-04-30T09:02:17.582Z,4.30
2023-04-30T09:04:44.925Z,4.10
2023-04-30T09:07:14.478Z,4.80
2023-04-30T09:09:41.365Z,4.83
2023-04-30T09:12:19.061Z,4.70
2023-04-30T09:15:05.849Z,5.03
2023-04-30T09:17:34.301Z,7.00
2023-04-30T09:20:11.850Z,5.90
2023-04-30T09:22:40.784Z,5.43
2023-04-30T09:25:09.455Z,6.63
2023-04-30T09:27:36.343Z,6.10
2023-04-30T09:30:03.570Z,5.30
2023-04-30T09:32:30.474Z,5.00
2023-04-30T09:34:57.358Z,3.93
2023-04-30T09:37:36.198Z,4.80
2023-04-30T09:40:04.381Z,5.60
2023-04-30T09:42:31.830Z,6.20
2023-04-30T09:44:58.641Z,5.83
2023-04-30T09:47:31.277Z,5.17
2023-04-30T09:50:00.185Z,5.03
2023-04-30T09:52:27.037Z,5.60
2023-04-30T09:54:54.540Z,4.20
2023-04-30T09:57:24.222Z,4.83
2023-04-30T09:59:53.405Z,4.60
2023-04-30T10:02:23.469Z,5.07
2023-04-30T10:04:57.676Z,4.63
2023-04-30T10:07:31.315Z,4.83
2023-04-30T10:10:05.335Z,4.73
2023-04-30T10:12:43.199Z,5.67
2023-04-30T10:15:25.349Z,4.90
2023-04-30T10:18:02.516Z,4.57
2023-04-30T10:20:31.580Z,3.93
2023-04-30T10:22:58.786Z,3.50
2023-04-30T10:25:26.587Z,4.70
2023-04-30T10:27:53.766Z,4.40
2023-04-30T10:30:22.616Z,3.43
2023-04-30T10:33:10.068Z,4.97
2023-04-30T10:35:49.871Z,4.67
2023-04-30T10:38:25.503Z,5.37
2023-04-30T10:40:58.159Z,4.80
2023-04-30T10:43:25.942Z,4.90
2023-04-30T10:45:52.905Z,4.00
2023-04-30T10:48:25.566Z,4.27
2023-04-30T10:50:55.171Z,3.97
2023-04-30T10:53:23.100Z,4.70
2023-04-30T10:56:00.519Z,4.77
2023-04-30T10:58:30.978Z,6.00
2023-04-30T11:01:01.628Z,4.03
2023-04-30T11:03:32.845Z,5.30
2023-04-30T11:06:03.922Z,3.73
2023-04-30T11:08:37.791Z,5.20
2023-04-30T11:11:05.204Z,4.40
2023-04-30T11:13:44.052Z,3.90
2023-04-30T11:16:11.171Z,3.67
2023-04-30T11:18:45.802Z,5.53
2023-04-30T11:21:13.329Z,3.37
2023-04-30T11:23:44.252Z,3.37
2023-04-30T11:26:11.761Z,4.33
2023-04-30T11:28:38.899Z,3.87
2023-04-30T11:31:06.429Z,3.60
2023-04-30T11:33:34.607Z,4.10
2023-04-30T11:36:02.246Z,4.60
2023-04-30T11:38:30.131Z,3.90
2023-04-30T11:41:10.289Z,3.53
2023-04-30T11:43:37.011Z,4.80
2023-04-30T11:46:08.466Z,4.83
2023-04-30T11:48:43.624Z,3.93
2023-04-30T11:51:26.985Z,5.30
2023-04-30T11:53:54.073Z,3.23
2023-04-30T11:56:22.517Z,3.50
2023-04-30T11:58:52.687Z,3.90
2023-04-30T12:01:21.262Z,3.77
2023-04-30T12:03:49.970Z,4.20
2023-04-30T12:06:25.515Z,3.63
2023-04-30T12:09:11.712Z,6.90
2023-04-30T12:11:39.258Z,3.20
2023-04-30T12:14:11.118Z,3.50
2023-04-30T12:16:50.860Z,3.97
2023-04-30T12:19:25.123Z,4.30
2023-04-30T12:21:54.933Z,7.93
2023-04-30T12:24:23.547Z,3.70
2023-04-30T12:26:53.545Z,4.97
2023-04-30T12:29:21.957Z,3.43
2023-04-30T12:31:51.193Z,4.33
2023-04-30T12:34:19.042Z,3.40
2023-04-30T12:36:45.861Z,3.43
2023-04-30T12:39:18.186Z,5.33
2023-04-30T12:41:47.531Z,3.37
2023-04-30T12:44:25.108Z,3.60
2023-04-30T12:46:56.601Z,3.10
2023-04-30T12:49:30.932Z,3.43
2023-04-30T12:52:09.469Z,4.60
2023-04-30T12:54:37.253Z,4.93
2023-04-30T12:57:12.402Z,3.40
2023-04-30T12:59:56.106Z,4.43
2023-04-30T13:02:25.481Z,4.70
2023-04-30T13:04:53.625Z,5.90
2023-04-30T13:07:21.099Z,3.40
2023-04-30T13:09:47.817Z,6.17
2023-04-30T13:12:15.092Z,4.77
2023-04-30T13:14:42.023Z,4.00
2023-04-30T13:17:10.034Z,3.63
2023-04-30T13:19:36.836Z,3.53
2023-04-30T13:22:03.690Z,3.90
2023-04-30T13:24:31.247Z,3.20
2023-04-30T13:26:59.450Z,4.00
2023-04-30T13:29:26.403Z,5.93
2023-04-30T13:31:53.300Z,3.27
2023-04-30T13:34:20.098Z,3.70
2023-04-30T13:36:46.901Z,3.20
2023-04-30T13:39:13.797Z,3.07
2023-04-30T13:41:40.656Z,3.50
2023-04-30T13:44:07.349Z,2.90
2023-04-30T13:46:34.398Z,3.27
2023-04-30T13:49:01.204Z,3.43
2023-04-30T13:51:28.917Z,4.50
2023-04-30T13:53:55.741Z,4.27
2023-04-30T13:56:22.539Z,5.00
2023-04-30T13:58:49.288Z,3.87
2023-04-30T14:01:16.249Z,4.23
2023-04-30T14:03:43.154Z,2.80
2023-04-30T14:06:10.536Z,3.00
2023-04-30T14:08:37.453Z,3.63
2023-04-30T14:11:04.317Z,5.23
2023-04-30T14:13:31.202Z,4.13
2023-04-30T14:15:58.053Z,4.23
2023-04-30T14:18:24.829Z,3.17
2023-04-30T14:20:51.799Z,2.90
2023-04-30T14:23:18.570Z,3.23
2023-04-30T14:25:45.292Z,3.70
2023-04-30T14:28:12.163Z,3.80
2023-04-30T14:30:39.104Z,2.60
2023-04-30T14:33:05.987Z,4.03
2023-04-30T14:35:33.591Z,3.53
2023-04-30T14:38:00.407Z,3.63
2023-04-30T14:40:27.309Z,3.00
2023-04-30T14:42:54.073Z,3.83
2023-04-30T14:45:20.875Z,3.10
2023-04-30T14:47:47.758Z,6.83
2023-04-30T14:50:14.630Z,3.20
2023-04-30T14:52:42.198Z,3.40
2023-04-30T14:55:09.256Z,3.10
2023-04-30T14:57:36.602Z,2.60
2023-04-30T15:00:04.196Z,2.73
2023-04-30T15:02:31.298Z,3.30
2023-04-30T15:04:58.169Z,3.10
2023-04-30T15:07:24.910Z,2.90
2023-04-30T15:09:52.827Z,5.03
2023-04-30T15:12:20.141Z,3.93
2023-04-30T15:14:46.890Z,3.73
2023-04-30T15:17:13.942Z,3.20
2023-04-30T15:19:40.765Z,4.10
2023-04-30T15:22:08.012Z,4.90
2023-04-30T15:24:35.599Z,3.10
2023-04-30T15:27:02.524Z,4.10
2023-04-30T15:29:29.362Z,2.90
2023-04-30T15:31:56.691Z,2.60
2023-04-30T15:34:23.599Z,3.17
2023-04-30T15:36:50.424Z,4.10
2023-04-30T15:39:17.970Z,5.27
2023-04-30T15:41:45.020Z,2.70
2023-04-30T15:44:11.776Z,2.70
2023-04-30T15:46:38.752Z,2.87
2023-04-30T15:49:05.590Z,2.90
2023-04-30T15:51:33.279Z,2.60
2023-04-30T15:54:00.011Z,2.83
2023-04-30T15:56:26.870Z,3.70
2023-04-30T15:58:54.341Z,4.30
2023-04-30T16:01:23.353Z,3.17
2023-04-30T16:03:50.493Z,2.90
2023-04-30T16:06:17.818Z,3.20
2023-04-30T16:08:46.318Z,4.50
2023-04-30T16:11:13.177Z,2.80
2023-04-30T16:13:40.034Z,2.77
2023-04-30T16:16:08.784Z,4.70
2023-04-30T16:18:35.700Z,3.00
2023-04-30T16:21:02.666Z,4.10
2023-04-30T16:23:29.485Z,3.20
2023-04-30T16:25:56.502Z,3.97
2023-04-30T16:28:23.664Z,3.30
2023-04-30T16:30:50.677Z,5.23
2023-04-30T16:33:17.542Z,3.80
2023-04-30T16:35:44.771Z,3.53
2023-04-30T16:38:11.689Z,3.23
2023-04-30T16:40:38.491Z,4.00
2023-04-30T16:43:08.182Z,2.90
2023-04-30T16:45:35.353Z,3.23
2023-04-30T16:48:02.288Z,3.23
2023-04-30T16:50:29.089Z,3.43
2023-04-30T16:52:56.023Z,3.50
2023-04-30T16:55:22.910Z,3.30
2023-04-30T16:57:50.745Z,3.37
2023-04-30T17:00:18.732Z,3.73
2023-04-30T17:02:48.657Z,3.30
2023-04-30T17:05:16.586Z,3.73
2023-04-30T17:07:46.021Z,3.50
2023-04-30T17:10:13.261Z,5.10
2023-04-30T17:12:40.451Z,3.13
2023-04-30T17:15:07.607Z,6.83
2023-04-30T17:17:34.504Z,3.40
2023-04-30T17:20:01.360Z,4.53
2023-04-30T17:22:28.178Z,3.33
2023-04-30T17:24:54.902Z,4.43
2023-04-30T17:27:23.423Z,3.43
2023-04-30T17:29:50.950Z,3.07
2023-04-30T17:32:18.010Z,4.17
2023-04-30T17:34:44.862Z,4.30
2023-04-30T17:37:12.022Z,4.83
2023-04-30T17:39:38.761Z,6.17
2023-04-30T17:42:05.599Z,3.97
2023-04-30T17:44:33.661Z,5.07
2023-04-30T17:47:00.505Z,3.50
2023-04-30T17:49:28.521Z,6.73
2023-04-30T17:51:55.308Z,4.50
2023-04-30T17:54:22.139Z,3.33
2023-04-30T17:56:49.332Z,3.10
2023-04-30T17:59:16.163Z,3.40
2023-04-30T18:01:43.056Z,5.90
2023-04-30T18:04:09.924Z,3.87
2023-04-30T18:06:36.943Z,4.47
2023-04-30T18:09:04.295Z,7.90
2023-04-30T18:11:31.190Z,4.20
2023-04-30T18:13:57.936Z,3.33
2023-04-30T18:16:24.790Z,4.60
2023-04-30T18:18:51.647Z,3.47
2023-04-30T18:21:18.749Z,3.60
2023-04-30T18:23:45.482Z,3.40
2023-04-30T18:26:12.250Z,3.20
2023-04-30T18:28:38.990Z,3.63
2023-04-30T18:31:05.793Z,4.10
2023-04-30T18:33:33.534Z,3.03
2023-04-30T18:36:05.368Z,3.20
2023-04-30T18:38:32.594Z,3.70
2023-04-30T18:41:00.236Z,4.00
2023-04-30T18:43:27.021Z,3.10
2023-04-30T18:45:53.829Z,3.20
2023-04-30T18:48:22.908Z,3.10
2023-04-30T18:50:50.698Z,3.37
2023-04-30T18:53:17.986Z,3.93
2023-04-30T18:55:45.254Z,4.13
2023-04-30T18:58:12.225Z,3.77
2023-04-30T19:00:42.963Z,3.20
2023-04-30T19:03:10.406Z,4.33
2023-04-30T19:05:37.834Z,3.80
2023-04-30T19:08:04.791Z,4.77
2023-04-30T19:10:33.498Z,4.57
2023-04-30T19:13:00.631Z,4.17
2023-04-30T19:15:29.963Z,5.03
2023-04-30T19:17:57.918Z,5.40
2023-04-30T19:20:24.803Z,4.90
2023-04-30T19:22:51.560Z,5.10
2023-04-30T19:25:18.352Z,4.87
2023-04-30T19:27:45.270Z,4.87
2023-04-30T19:30:12.564Z,3.93
2023-04-30T19:32:39.424Z,5.87
2023-04-30T19:35:06.858Z,4.40
2023-04-30T19:37:33.641Z,4.40
2023-04-30T19:40:00.444Z,5.40
2023-04-30T19:42:27.287Z,4.37
2023-04-30T19:44:54.243Z,4.83
2023-04-30T19:47:22.629Z,4.60
2023-04-30T19:49:49.446Z,5.00
2023-04-30T19:52:16.269Z,5.73
2023-04-30T19:54:48.422Z,4.87
2023-04-30T19:57:15.572Z,5.43
2023-04-30T19:59:43.294Z,5.87
2023-04-30T20:02:10.583Z,5.00
2023-04-30T20:04:37.553Z,5.90
2023-04-30T20:07:04.464Z,5.10
2023-04-30T20:09:31.251Z,6.07
2023-04-30T20:11:58.162Z,4.53
2023-04-30T20:14:24.963Z,6.00
2023-04-30T20:16:54.434Z,5.10
2023-04-30T20:19:22.297Z,5.20
2023-04-30T20:21:50.538Z,5.10
2023-04-30T20:24:17.433Z,4.93
2023-04-30T20:26:44.912Z,5.33
2023-04-30T20:29:11.781Z,8.07
2023-04-30T20:31:38.783Z,6.10
2023-04-30T20:34:05.715Z,5.40
2023-04-30T20:36:32.758Z,5.00
2023-04-30T20:39:00.165Z,5.67
2023-04-30T20:41:27.474Z,5.10
2023-04-30T20:43:54.541Z,4.70
2023-04-30T20:46:24.977Z,5.53
2023-04-30T20:48:54.506Z,5.53
2023-04-30T20:51:23.545Z,4.77
2023-04-30T20:53:50.352Z,5.33
2023-04-30T20:56:17.184Z,5.70
2023-04-30T20:58:44.028Z,5.60
2023-04-30T21:01:11.024Z,5.80
2023-04-30T21:03:37.807Z,5.50
2023-04-30T21:06:07.076Z,5.50
2023-04-30T21:08:33.968Z,7.33
2023-04-30T21:11:00.766Z,6.63
2023-04-30T21:13:28.630Z,7.20
2023-04-30T21:15:55.473Z,6.50
2023-04-30T21:18:22.372Z,12.37
2023-04-30T21:20:49.413Z,6.50
2023-04-30T21:23:16.375Z,8.20
2023-04-30T21:25:43.160Z,5.50
2023-04-30T21:28:09.959Z,4.70
2023-04-30T21:30:37.370Z,7.50
2023-04-30T21:33:04.797Z,7.73
2023-04-30T21:35:33.132Z,5.73
2023-04-30T21:38:00.193Z,5.50
2023-04-30T21:40:27.171Z,5.70
2023-04-30T21:42:54.833Z,5.07
2023-04-30T21:45:21.877Z,5.20
2023-04-30T21:47:48.810Z,7.00
2023-04-30T21:50:15.769Z,5.40
2023-04-30T21:52:42.645Z,5.50
2023-04-30T21:55:09.780Z,7.43
2023-04-30T21:57:36.718Z,4.90
2023-04-30T22:00:06.525Z,7.47
2023-04-30T22:02:33.519Z,5.50
2023-04-30T22:05:00.964Z,5.20
2023-04-30T22:07:28.166Z,8.00
2023-04-30T22:09:55.189Z,6.07
2023-04-30T22:12:25.070Z,5.60
2023-04-30T22:14:55.285Z,5.83
2023-04-30T22:17:22.606Z,6.47
2023-04-30T22:19:49.463Z,5.17
2023-04-30T22:22:16.648Z,6.70
2023-04-30T22:24:43.735Z,5.43
2023-04-30T22:27:10.591Z,6.10
2023-04-30T22:29:37.372Z,5.53
2023-04-30T22:32:04.841Z,4.90
2023-04-30T22:34:34.616Z,7.07
2023-04-30T22:37:01.389Z,5.00
2023-04-30T22:39:28.142Z,6.13
2023-04-30T22:41:54.996Z,5.53
2023-04-30T22:44:22.140Z,5.60
2023-04-30T22:46:49.557Z,9.53
2023-04-30T22:49:30.111Z,5.93
2023-04-30T22:51:58.432Z,5.90
2023-04-30T22:54:25.337Z,5.00
2023-04-30T22:56:52.426Z,5.50
2023-04-30T22:59:19.199Z,6.10
2023-04-30T23:01:46.205Z,6.50
2023-04-30T23:04:13.751Z,5.40
2023-04-30T23:06:41.867Z,5.77
2023-04-30T23:09:08.937Z,5.03
2023-04-30T23:11:35.727Z,7.53
2023-04-30T23:14:02.548Z,5.60
2023-04-30T23:16:29.327Z,5.70
2023-04-30T23:18:56.685Z,5.13
2023-04-30T23:21:23.898Z,6.80
2023-04-30T23:23:50.741Z,6.43
2023-04-30T23:26:17.625Z,4.70
2023-04-30T23:28:44.394Z,5.60
2023-04-30T23:31:11.144Z,5.00
2023-04-30T23:33:38.082Z,6.00
2023-04-30T23:36:05.263Z,5.37
2023-04-30T23:38:32.050Z,5.90
2023-04-30T23:40:58.807Z,9.10
2023-04-30T23:43:25.584Z,7.43
2023-04-30T23:45:52.553Z,5.60
2023-04-30T23:48:19.406Z,5.93
2023-04-30T23:50:47.233Z,6.53
2023-04-30T23:53:17.102Z,9.90
2023-04-30T23:55:44.077Z,6.60
2023-04-30T23:58:10.858Z,5.20
